createdAt,value
2022-12-04T00:01:16.037Z,1139.2
2022-12-04T00:02:59.425Z,1141.1
2022-12-04T00:04:42.826Z,1144.4
2022-12-04T00:06:26.247Z,1147.6
2022-12-04T00:08:09.615Z,1150.4
2022-12-04T00:09:53.018Z,1146.8
2022-12-04T00:11:36.522Z,1147.2
2022-12-04T00:13:20.241Z,1148.3
2022-12-04T00:15:03.516Z,1145
2022-12-04T00:16:46.926Z,1142.5
2022-12-04T00:18:30.320Z,1144.2
2022-12-04T00:20:13.708Z,1144.7
2022-12-04T00:21:57.188Z,1146.4
2022-12-04T00:23:40.552Z,1145.4
2022-12-04T00:25:23.960Z,1143.2
2022-12-04T00:28:50.441Z,1138.8
2022-12-04T00:30:33.859Z,1137.5
2022-12-04T00:32:17.267Z,1138
2022-12-04T00:34:00.563Z,1139.6
2022-12-04T00:35:43.965Z,1138.6
2022-12-04T00:37:27.376Z,1134.5
2022-12-04T00:39:10.776Z,1125.1
2022-12-04T00:40:54.156Z,1123.6
2022-12-04T00:46:03.498Z,1117.5
2022-12-04T00:47:46.774Z,1119.8
2022-12-04T00:49:30.222Z,1119.8
2022-12-04T00:51:13.621Z,1119.4
2022-12-04T00:52:56.981Z,1119.6
2022-12-04T00:54:40.432Z,1120
2022-12-04T00:56:23.886Z,1120.4
2022-12-04T00:58:07.170Z,1117.5
2022-12-04T01:01:33.629Z,1114.8
2022-12-04T01:03:17.084Z,1117.1
2022-12-04T01:05:00.436Z,1114.7
2022-12-04T01:06:43.883Z,1110.2
2022-12-04T01:08:27.243Z,1107.7
2022-12-04T01:10:10.614Z,1106.6
2022-12-04T01:11:54.048Z,1109.1
2022-12-04T01:13:37.410Z,1108.2
2022-12-04T01:15:21.126Z,1106.7
2022-12-04T01:17:04.540Z,1105.5
2022-12-04T01:18:47.962Z,1104.5
2022-12-04T01:20:31.305Z,1106.2
2022-12-04T01:22:14.712Z,1106.7
2022-12-04T01:23:58.210Z,1106.1
2022-12-04T01:25:41.514Z,1107.6
2022-12-04T01:27:24.915Z,1108.7
2022-12-04T01:30:51.364Z,1105.1
2022-12-04T01:32:34.814Z,1101.4
2022-12-04T01:34:18.173Z,1102
2022-12-04T01:36:01.553Z,1103.1
2022-12-04T01:37:44.945Z,1101
2022-12-04T01:39:28.391Z,1097.4
2022-12-04T01:41:11.751Z,1093.3
2022-12-04T01:42:55.135Z,1090.4
2022-12-04T01:46:21.624Z,1088.5
2022-12-04T01:48:05.009Z,1090.1
2022-12-04T01:49:48.442Z,1090.8
2022-12-04T01:51:31.812Z,1089.4
2022-12-04T01:53:15.288Z,1086
2022-12-04T01:54:58.599Z,1087.4
2022-12-04T01:56:42.045Z,1089.3
2022-12-04T01:58:25.429Z,1087
2022-12-04T02:01:51.872Z,1088.5
2022-12-04T02:03:35.268Z,1085.6
2022-12-04T02:05:18.660Z,1086.5
2022-12-04T02:07:02.060Z,1084.6
2022-12-04T02:08:45.538Z,1082.1
2022-12-04T02:10:28.913Z,1079.3
2022-12-04T02:12:12.243Z,1078
2022-12-04T02:13:55.647Z,1079.2
2022-12-04T02:19:04.930Z,1074.5
2022-12-04T02:20:48.350Z,1072.3
2022-12-04T02:22:31.673Z,1074.4
2022-12-04T02:24:15.094Z,1073.4
2022-12-04T02:25:58.473Z,1071.3
2022-12-04T02:27:41.870Z,1072.6
2022-12-04T02:29:25.326Z,1075.4
2022-12-04T02:31:08.658Z,1076.8
2022-12-04T02:34:35.197Z,1073.7
2022-12-04T02:36:18.534Z,1075.4
2022-12-04T02:38:01.984Z,1076.3
2022-12-04T02:39:45.408Z,1075.5
2022-12-04T02:41:28.713Z,1070.7
2022-12-04T02:43:12.137Z,1067.1
2022-12-04T02:44:55.506Z,1068.7
2022-12-04T02:46:38.909Z,1066.8
2022-12-04T02:50:05.426Z,1060.4
2022-12-04T02:51:48.850Z,1061.3
2022-12-04T02:53:32.177Z,1063.8
2022-12-04T02:55:15.647Z,1062.6
2022-12-04T02:56:59.031Z,1061.1
2022-12-04T02:58:42.366Z,1063
2022-12-04T03:00:25.765Z,1063.2
2022-12-04T03:02:09.240Z,1059.5
2022-12-04T03:05:35.636Z,1057.5
2022-12-04T03:07:19.024Z,1052.4
2022-12-04T03:09:02.418Z,1054.5
2022-12-04T03:10:45.802Z,1054.6
2022-12-04T03:12:29.216Z,1054
2022-12-04T03:14:12.608Z,1054.8
2022-12-04T03:15:56.015Z,1056.5
2022-12-04T03:17:39.402Z,1057.7
2022-12-04T03:19:23.120Z,1057
2022-12-04T03:21:06.495Z,1059.2
2022-12-04T03:22:50.076Z,1059
2022-12-04T03:24:33.507Z,1057.5
2022-12-04T03:26:16.772Z,1057.5
2022-12-04T03:28:00.170Z,1056.1
2022-12-04T03:29:43.471Z,1054.4
2022-12-04T03:31:26.926Z,1049.8
2022-12-04T03:34:53.401Z,1042.4
2022-12-04T03:36:36.737Z,1043
2022-12-04T03:38:20.241Z,1046.4
2022-12-04T03:40:03.538Z,1043.8
2022-12-04T03:41:46.999Z,1043.1
2022-12-04T03:43:30.395Z,1044.6
2022-12-04T03:45:13.724Z,1045.4
2022-12-04T03:46:57.207Z,1044.7
2022-12-04T03:50:23.586Z,1043.9
2022-12-04T03:52:07.033Z,1041.8
2022-12-04T03:53:50.382Z,1037.5
2022-12-04T03:55:33.900Z,1040.4
2022-12-04T03:57:17.189Z,1039.3
2022-12-04T03:59:00.576Z,1039.8
2022-12-04T04:00:44.080Z,1040.4
2022-12-04T04:02:27.372Z,1039.1
2022-12-04T04:04:11.065Z,1036.9
2022-12-04T04:05:54.488Z,1033.8
2022-12-04T04:07:37.922Z,1030.8
2022-12-04T04:09:21.315Z,1030.3
2022-12-04T04:11:04.650Z,1031.1
2022-12-04T04:12:48.048Z,1031.6
2022-12-04T04:14:31.443Z,1029.3
2022-12-04T04:16:14.845Z,1026.3
2022-12-04T04:19:41.338Z,1023.7
2022-12-04T04:21:24.710Z,1023.2
2022-12-04T04:23:08.140Z,1021.1
2022-12-04T04:24:51.508Z,1020.6
2022-12-04T04:26:35.023Z,1019.4
2022-12-04T04:28:18.298Z,1022.1
2022-12-04T04:30:01.693Z,1021
2022-12-04T04:31:45.114Z,1022.1
2022-12-04T04:35:11.561Z,1025.3
2022-12-04T04:36:55.052Z,1024.4
2022-12-04T04:38:38.368Z,1023.7
2022-12-04T04:40:21.862Z,1022.5
2022-12-04T04:42:05.159Z,1023.3
2022-12-04T04:43:48.565Z,1023.4
2022-12-04T04:45:32.062Z,1023
2022-12-04T04:47:15.352Z,1018.8
2022-12-04T04:48:59.092Z,1016
2022-12-04T04:50:42.449Z,1014.5
2022-12-04T04:52:25.879Z,1016.5
2022-12-04T04:54:09.238Z,1017.5
2022-12-04T04:55:52.623Z,1018.4
2022-12-04T04:57:36.025Z,1019.7
2022-12-04T04:59:19.530Z,1018.5
2022-12-04T05:01:02.814Z,1017.5
2022-12-04T05:04:29.302Z,1014.8
2022-12-04T05:06:12.686Z,1014.4
2022-12-04T05:07:56.089Z,1014.8
2022-12-04T05:09:39.489Z,1012.4
2022-12-04T05:11:22.877Z,1011.1
2022-12-04T05:13:06.268Z,1010.7
2022-12-04T05:14:49.705Z,1014.4
2022-12-04T05:16:33.130Z,1013.1
2022-12-04T05:19:59.633Z,1016
2022-12-04T05:21:42.932Z,1016.1
2022-12-04T05:23:26.392Z,1017
2022-12-04T05:25:09.720Z,1016.2
2022-12-04T05:26:53.118Z,1017
2022-12-04T05:28:36.604Z,1017.1
2022-12-04T05:30:20.038Z,1018.8
2022-12-04T05:32:03.509Z,1021.6
2022-12-04T05:37:12.548Z,1015.7
2022-12-04T05:38:55.986Z,1016.3
2022-12-04T05:40:39.358Z,1018.3
2022-12-04T05:42:22.741Z,1019.3
2022-12-04T05:44:06.202Z,1018.2
2022-12-04T05:45:49.525Z,1021.3
2022-12-04T05:47:33.022Z,1020.3
2022-12-04T05:49:16.323Z,1019.8
2022-12-04T05:52:42.793Z,1016.2
2022-12-04T05:54:26.195Z,1011.2
2022-12-04T05:56:09.576Z,1007.8
2022-12-04T05:57:52.981Z,1006.4
2022-12-04T05:59:36.401Z,1006.2
2022-12-04T06:01:19.768Z,1007.2
2022-12-04T06:03:03.168Z,1004.7
2022-12-04T06:04:46.586Z,1000.1
2022-12-04T06:08:13.051Z,994.9
2022-12-04T06:09:56.451Z,996.1
2022-12-04T06:11:39.931Z,997.8
2022-12-04T06:13:23.236Z,998.8
2022-12-04T06:15:06.615Z,997.1
2022-12-04T06:16:50.023Z,994.3
2022-12-04T06:18:33.570Z,996.6
2022-12-04T06:20:16.803Z,997.5
2022-12-04T06:23:43.289Z,999.9
2022-12-04T06:25:26.688Z,1003.4
2022-12-04T06:27:10.083Z,1004.6
2022-12-04T06:28:53.492Z,1006
2022-12-04T06:30:36.972Z,1006.2
2022-12-04T06:32:20.274Z,1005.1
2022-12-04T06:34:03.742Z,1005.4
2022-12-04T06:35:47.049Z,1005.4
2022-12-04T06:37:30.549Z,999.2
2022-12-04T06:39:14.163Z,997.4
2022-12-04T06:40:57.556Z,995.4
2022-12-04T06:42:40.955Z,997
2022-12-04T06:44:24.338Z,996.2
2022-12-04T06:46:07.796Z,995.8
2022-12-04T06:47:51.141Z,991.4
2022-12-04T06:49:34.554Z,990.7
2022-12-04T06:51:17.961Z,991
2022-12-04T06:56:27.201Z,983.8
2022-12-04T06:58:10.626Z,986.2
2022-12-04T06:59:53.977Z,990.8
2022-12-04T07:01:37.352Z,991
2022-12-04T07:03:20.805Z,990.3
2022-12-04T07:05:04.150Z,991.3
2022-12-04T07:06:47.643Z,992.8
2022-12-04T07:08:30.946Z,993.6
2022-12-04T07:13:40.232Z,982.3
2022-12-04T07:15:23.582Z,980.4
2022-12-04T07:17:07.047Z,977.6
2022-12-04T07:18:50.445Z,973.3
2022-12-04T07:20:33.780Z,970.5
2022-12-04T07:22:17.250Z,965
2022-12-04T07:24:00.600Z,964.6
2022-12-04T07:25:43.963Z,964.8
2022-12-04T07:27:27.456Z,968.5
2022-12-04T07:29:11.072Z,967.9
2022-12-04T07:30:54.459Z,967.5
2022-12-04T07:32:37.853Z,968.5
2022-12-04T07:34:21.341Z,967.3
2022-12-04T07:36:04.757Z,967.3
2022-12-04T07:37:48.061Z,966.5
2022-12-04T07:39:31.496Z,965.5
2022-12-04T07:41:14.840Z,963.6
2022-12-04T07:42:58.240Z,965
2022-12-04T07:44:42.023Z,967.1
2022-12-04T07:46:25.338Z,969
2022-12-04T07:48:08.722Z,969.7
2022-12-04T07:49:52.163Z,972.6
2022-12-04T07:51:35.598Z,974.8
2022-12-04T07:53:19.027Z,975.3
2022-12-04T07:55:02.331Z,973.8
2022-12-04T07:56:45.711Z,973.3
2022-12-04T08:01:55.041Z,969.6
2022-12-04T08:03:38.469Z,967.4
2022-12-04T08:05:21.742Z,968.8
2022-12-04T08:07:05.312Z,971.6
2022-12-04T08:08:48.609Z,971.7
2022-12-04T08:10:31.953Z,974
2022-12-04T08:12:15.325Z,973
2022-12-04T08:13:58.787Z,974.1
2022-12-04T08:19:08.151Z,883.2
2022-12-04T08:20:51.393Z,577.4
2022-12-04T08:22:34.912Z,509.6
2022-12-04T08:24:18.241Z,477.7
2022-12-04T08:26:01.666Z,484.1
2022-12-04T08:27:44.958Z,521.3
2022-12-04T08:29:28.513Z,570.2
2022-12-04T08:31:11.833Z,569.2
2022-12-04T08:36:21.021Z,581.5
2022-12-04T08:38:04.565Z,587.5
2022-12-04T08:39:47.767Z,594.6
2022-12-04T08:41:31.631Z,603.3
2022-12-04T08:43:14.608Z,609.4
2022-12-04T08:44:58.062Z,616.8
2022-12-04T08:46:41.481Z,628.1
2022-12-04T08:48:24.911Z,642
2022-12-04T08:50:08.167Z,649.5
2022-12-04T08:53:34.678Z,651.7
2022-12-04T08:55:18.171Z,657.7
2022-12-04T08:57:01.489Z,660.4
2022-12-04T08:58:44.927Z,663.3
2022-12-04T09:00:28.211Z,664.5
2022-12-04T09:02:11.604Z,666.3
2022-12-04T09:03:55.082Z,671.5
2022-12-04T09:05:38.460Z,681.2
2022-12-04T09:09:04.996Z,712.9
2022-12-04T09:10:48.307Z,746.7
2022-12-04T09:12:31.657Z,738.2
2022-12-04T09:14:15.059Z,745.6
2022-12-04T09:15:58.471Z,751.3
2022-12-04T09:17:41.854Z,756.5
2022-12-04T09:19:27.941Z,762.4
2022-12-04T09:21:08.745Z,771.4
2022-12-04T09:24:35.120Z,773.8
2022-12-04T09:26:18.507Z,773.6
2022-12-04T09:28:02.048Z,768.8
2022-12-04T09:29:45.308Z,771.8
2022-12-04T09:31:28.768Z,772.4
2022-12-04T09:33:12.239Z,771.4
2022-12-04T09:34:55.632Z,773.1
2022-12-04T09:36:39.107Z,770.7
2022-12-04T09:40:05.374Z,770.2
2022-12-04T09:41:48.809Z,766.7
2022-12-04T09:43:32.277Z,766.1
2022-12-04T09:45:15.655Z,769
2022-12-04T09:46:59.079Z,771.7
2022-12-04T09:48:42.462Z,774
2022-12-04T09:50:25.872Z,779.3
2022-12-04T09:52:09.163Z,782.7
2022-12-04T09:55:35.687Z,785.9
2022-12-04T09:57:19.061Z,786.4
2022-12-04T09:59:02.475Z,788.6
2022-12-04T10:00:45.869Z,800.7
2022-12-04T10:02:29.184Z,808
2022-12-04T10:04:12.605Z,810.4
2022-12-04T10:05:55.981Z,810.1
2022-12-04T10:07:39.393Z,803.4
2022-12-04T10:11:05.855Z,802.6
2022-12-04T10:12:49.324Z,807.3
2022-12-04T10:14:32.654Z,807.1
2022-12-04T10:16:16.053Z,812.3
2022-12-04T10:17:59.583Z,824.4
2022-12-04T10:19:42.830Z,838
2022-12-04T10:21:26.281Z,847.7
2022-12-04T10:23:09.622Z,852.1
2022-12-04T10:26:36.092Z,874.7
2022-12-04T10:28:19.492Z,883.3
2022-12-04T10:30:02.943Z,887.2
2022-12-04T10:31:46.366Z,890.7
2022-12-04T10:33:29.688Z,891.8
2022-12-04T10:35:13.089Z,889.6
2022-12-04T10:36:56.536Z,885.8
2022-12-04T10:38:39.874Z,880.8
2022-12-04T10:40:23.590Z,876.5
2022-12-04T10:42:06.968Z,877.1
2022-12-04T10:43:50.402Z,879.7
2022-12-04T10:45:33.758Z,883.3
2022-12-04T10:47:17.209Z,885.8
2022-12-04T10:49:00.576Z,889.2
2022-12-04T10:50:44.011Z,889.2
2022-12-04T10:52:27.422Z,884
2022-12-04T10:55:53.819Z,883.3
2022-12-04T10:57:37.213Z,886.7
2022-12-04T10:59:20.621Z,896.6
2022-12-04T11:01:04.125Z,941.2
2022-12-04T11:02:47.410Z,942.1
2022-12-04T11:04:30.839Z,947.8
2022-12-04T11:06:14.196Z,943.1
2022-12-04T11:07:57.677Z,939.6
2022-12-04T11:11:24.105Z,934.4
2022-12-04T11:13:07.491Z,927.8
2022-12-04T11:14:50.964Z,922.8
2022-12-04T11:16:34.291Z,916.2
2022-12-04T11:18:17.767Z,907
2022-12-04T11:20:01.144Z,900.3
2022-12-04T11:21:44.566Z,895.8
2022-12-04T11:23:27.956Z,890.8
2022-12-04T11:28:37.080Z,875.4
2022-12-04T11:30:20.472Z,870.2
2022-12-04T11:32:03.887Z,866.2
2022-12-04T11:33:47.295Z,864.6
2022-12-04T11:35:30.825Z,864.1
2022-12-04T11:37:14.107Z,863.7
2022-12-04T11:38:57.558Z,862.3
2022-12-04T11:40:40.921Z,855.3
2022-12-04T11:44:07.334Z,844
2022-12-04T11:45:50.742Z,840.2
2022-12-04T11:47:34.121Z,836.4
2022-12-04T11:49:17.511Z,832.3
2022-12-04T11:51:00.920Z,830.4
2022-12-04T11:52:44.312Z,827.2
2022-12-04T11:54:27.707Z,821
2022-12-04T11:56:11.130Z,819.3
2022-12-04T12:01:20.555Z,814.4
2022-12-04T12:03:03.878Z,811.5
2022-12-04T12:04:47.138Z,807.4
2022-12-04T12:06:30.529Z,806.3
2022-12-04T12:08:14.131Z,807.4
2022-12-04T12:09:57.579Z,808
2022-12-04T12:11:40.991Z,807.2
2022-12-04T12:13:24.301Z,803.5
2022-12-04T12:16:50.752Z,791.7
2022-12-04T12:18:34.242Z,788
2022-12-04T12:20:17.580Z,787
2022-12-04T12:22:00.922Z,787.5
2022-12-04T12:23:44.424Z,785.6
2022-12-04T12:25:27.846Z,783.5
2022-12-04T12:27:11.008Z,781.2
2022-12-04T12:28:54.404Z,776.7
2022-12-04T12:32:20.841Z,772.7
2022-12-04T12:34:04.427Z,768.8
2022-12-04T12:35:47.775Z,766.5
2022-12-04T12:37:31.139Z,766.8
2022-12-04T12:39:14.614Z,762.6
2022-12-04T12:40:57.992Z,759.3
2022-12-04T12:42:41.321Z,756.7
2022-12-04T12:44:24.672Z,754.8
2022-12-04T12:49:33.969Z,751.5
2022-12-04T12:51:17.290Z,758.7
2022-12-04T12:53:00.701Z,767.7
2022-12-04T12:54:44.150Z,769.1
2022-12-04T12:56:27.676Z,770.8
2022-12-04T12:58:11.095Z,771.4
2022-12-04T12:59:54.499Z,777.3
2022-12-04T13:01:37.764Z,787.4
2022-12-04T13:05:04.317Z,792
2022-12-04T13:06:47.814Z,794.4
2022-12-04T13:08:31.091Z,793.2
2022-12-04T13:10:14.440Z,792.7
2022-12-04T13:11:57.764Z,789.6
2022-12-04T13:13:41.283Z,790.3
2022-12-04T13:15:24.714Z,791.2
2022-12-04T13:17:07.881Z,797.5
2022-12-04T13:20:34.408Z,810.2
2022-12-04T13:22:17.844Z,815.2
2022-12-04T13:24:01.230Z,818.1
2022-12-04T13:25:44.716Z,820
2022-12-04T13:27:27.992Z,824
2022-12-04T13:29:11.433Z,824.8
2022-12-04T13:30:54.780Z,820.3
2022-12-04T13:32:38.280Z,823.1
2022-12-04T13:36:04.835Z,842.9
2022-12-04T13:37:48.209Z,852.5
2022-12-04T13:39:31.591Z,858.1
2022-12-04T13:41:14.853Z,865.2
2022-12-04T13:42:58.379Z,871.1
2022-12-04T13:44:41.612Z,872.6
2022-12-04T13:46:25.156Z,875.7
2022-12-04T13:48:08.552Z,881
2022-12-04T13:51:34.960Z,890
2022-12-04T13:53:18.504Z,890
2022-12-04T13:55:01.680Z,891
2022-12-04T13:56:45.050Z,888.6
2022-12-04T13:58:28.703Z,886.8
2022-12-04T14:00:11.941Z,889.6
2022-12-04T14:01:55.309Z,891.1
2022-12-04T14:07:04.529Z,893.1
2022-12-04T14:08:48.062Z,897.4
2022-12-04T14:10:31.266Z,899.3
2022-12-04T14:12:14.657Z,902
2022-12-04T14:13:58.055Z,909.5
2022-12-04T14:15:41.464Z,918
2022-12-04T14:17:24.840Z,932.4
2022-12-04T14:19:08.286Z,923.4
2022-12-04T14:22:34.755Z,911.3
2022-12-04T14:24:18.105Z,907.3
2022-12-04T14:26:01.504Z,911.3
2022-12-04T14:27:44.883Z,917.7
2022-12-04T14:29:28.289Z,921.6
2022-12-04T14:31:11.689Z,918.4
2022-12-04T14:32:55.094Z,918.8
2022-12-04T14:34:38.536Z,921.7
2022-12-04T14:39:47.730Z,933.8
2022-12-04T14:41:31.119Z,934.8
2022-12-04T14:43:14.510Z,932.2
2022-12-04T14:44:57.909Z,926.1
2022-12-04T14:46:41.304Z,914.6
2022-12-04T14:48:24.703Z,903.2
2022-12-04T14:50:08.100Z,907.1
2022-12-04T14:51:51.504Z,904.8
2022-12-04T14:55:17.981Z,899.6
2022-12-04T14:57:01.362Z,895.1
2022-12-04T14:58:44.762Z,890.6
2022-12-04T15:00:28.310Z,888
2022-12-04T15:02:11.543Z,885.8
2022-12-04T15:03:54.976Z,886.5
2022-12-04T15:05:38.347Z,885.2
2022-12-04T15:07:21.730Z,885.1
2022-12-04T15:10:48.233Z,887.9
2022-12-04T15:12:31.614Z,898
2022-12-04T15:14:15.032Z,908
2022-12-04T15:15:58.422Z,933.2
2022-12-04T15:17:41.820Z,928.1
2022-12-04T15:19:25.193Z,934.7
2022-12-04T15:21:08.571Z,962.7
2022-12-04T15:22:51.977Z,956.5
2022-12-04T15:26:18.463Z,953.5
2022-12-04T15:28:01.883Z,954.5
2022-12-04T15:29:45.255Z,954
2022-12-04T15:31:28.669Z,956.4
2022-12-04T15:33:12.034Z,956
2022-12-04T15:34:55.453Z,951.4
2022-12-04T15:36:38.833Z,948.4
2022-12-04T15:38:22.230Z,945.6
2022-12-04T15:41:48.701Z,947.1
2022-12-04T15:43:32.102Z,947.2
2022-12-04T15:45:15.694Z,947.3
2022-12-04T15:46:58.911Z,941.3
2022-12-04T15:48:42.306Z,938
2022-12-04T15:50:25.677Z,937.2
2022-12-04T15:52:09.124Z,936.4
2022-12-04T15:53:52.481Z,936.7
2022-12-04T15:59:01.710Z,946.7
2022-12-04T16:00:45.113Z,949.6
2022-12-04T16:02:28.505Z,952.2
2022-12-04T16:04:11.911Z,954.1
2022-12-04T16:05:55.313Z,954.4
2022-12-04T16:07:38.700Z,958.2
2022-12-04T16:09:22.102Z,958.8
2022-12-04T16:11:05.501Z,961.2
2022-12-04T16:14:31.997Z,964.8
2022-12-04T16:16:15.368Z,970.5
2022-12-04T16:17:58.768Z,975.1
2022-12-04T16:19:42.168Z,979.1
2022-12-04T16:21:25.549Z,980.5
2022-12-04T16:23:08.975Z,980.1
2022-12-04T16:24:52.335Z,979.4
2022-12-04T16:26:35.802Z,976.5
2022-12-04T16:28:19.462Z,975.8
2022-12-04T16:30:02.840Z,978
2022-12-04T16:31:46.228Z,979.1
2022-12-04T16:33:29.620Z,976.7
2022-12-04T16:35:13.030Z,977.5
2022-12-04T16:36:56.424Z,980
2022-12-04T16:38:39.838Z,979.8
2022-12-04T16:40:23.247Z,981.2
2022-12-04T16:43:49.683Z,987
2022-12-04T16:45:33.128Z,992.8
2022-12-04T16:47:16.489Z,998
2022-12-04T16:48:59.886Z,1003.8
2022-12-04T16:50:43.320Z,1011.8
2022-12-04T16:52:26.672Z,1011.1
2022-12-04T16:54:10.136Z,1009.2
2022-12-04T16:55:53.469Z,1009.2
2022-12-04T17:01:02.701Z,997.5
2022-12-04T17:02:46.115Z,994.6
2022-12-04T17:04:29.515Z,995.4
2022-12-04T17:06:12.917Z,993.2
2022-12-04T17:07:56.301Z,990.4
2022-12-04T17:09:39.709Z,990.4
2022-12-04T17:11:23.089Z,989.2
2022-12-04T17:13:06.480Z,990.2
2022-12-04T17:18:15.713Z,1001.2
2022-12-04T17:19:59.126Z,1005.8
2022-12-04T17:21:42.537Z,1007
2022-12-04T17:23:25.923Z,1010.1
2022-12-04T17:25:09.335Z,1007.7
2022-12-04T17:26:52.724Z,1008.3
2022-12-04T17:28:36.124Z,1008.8
2022-12-04T17:30:19.510Z,1009.8
2022-12-04T17:35:28.769Z,1006.7
2022-12-04T17:37:12.142Z,1004.6
2022-12-04T17:38:55.547Z,1003.6
2022-12-04T17:40:38.995Z,1007.3
2022-12-04T17:42:22.320Z,1008.7
2022-12-04T17:44:05.737Z,1008.2
2022-12-04T17:45:49.124Z,1010.7
2022-12-04T17:47:32.523Z,1015.4
2022-12-04T17:52:41.803Z,1016.7
2022-12-04T17:54:25.164Z,1018.8
2022-12-04T17:56:08.552Z,1022.7
2022-12-04T17:57:51.955Z,1024.5
2022-12-04T17:59:35.557Z,1024.7
2022-12-04T18:01:18.751Z,1025.4
2022-12-04T18:03:02.222Z,1023
2022-12-04T18:04:45.560Z,1028
2022-12-04T18:08:12.021Z,1026
2022-12-04T18:09:55.426Z,1026
2022-12-04T18:11:38.809Z,1026
2022-12-04T18:13:22.237Z,1027.1
2022-12-04T18:15:05.597Z,1032.2
2022-12-04T18:16:49.004Z,1036.6
2022-12-04T18:18:32.386Z,1039.1
2022-12-04T18:20:15.811Z,1041.8
2022-12-04T18:25:25.030Z,1053.8
2022-12-04T18:27:08.442Z,1058.3
2022-12-04T18:28:51.839Z,1059.3
2022-12-04T18:30:35.224Z,1060.3
2022-12-04T18:32:18.624Z,1064.6
2022-12-04T18:34:02.036Z,1063.7
2022-12-04T18:35:45.419Z,1061.1
2022-12-04T18:37:28.809Z,1057.8
2022-12-04T18:40:55.294Z,1056.4
2022-12-04T18:42:38.680Z,1057.1
2022-12-04T18:44:22.082Z,1055.8
2022-12-04T18:46:05.487Z,1053.2
2022-12-04T18:47:48.879Z,1051.6
2022-12-04T18:49:32.470Z,1053.3
2022-12-04T18:51:15.660Z,1055.1
2022-12-04T18:52:59.079Z,1053
2022-12-04T18:54:42.463Z,1051.2
2022-12-04T18:56:26.223Z,1051.6
2022-12-04T18:58:09.573Z,1050.2
2022-12-04T18:59:52.951Z,1049.1
2022-12-04T19:01:36.347Z,1048.6
2022-12-04T19:03:19.755Z,1050.2
2022-12-04T19:05:03.143Z,1054.4
2022-12-04T19:06:46.539Z,1056.1
2022-12-04T19:08:29.946Z,1057.2
2022-12-04T19:10:13.328Z,1058.8
2022-12-04T19:13:39.806Z,1059.2
2022-12-04T19:15:23.199Z,1060.6
2022-12-04T19:17:06.589Z,1065.4
2022-12-04T19:18:50.012Z,1074.8
2022-12-04T19:20:33.392Z,1085.5
2022-12-04T19:22:16.797Z,1128.5
2022-12-04T19:24:00.192Z,1176.6
2022-12-04T19:25:43.633Z,1165.4
2022-12-04T19:30:52.833Z,1126.1
2022-12-04T19:32:36.225Z,1099.1
2022-12-04T19:34:19.690Z,1073.8
2022-12-04T19:36:03.018Z,1070.7
2022-12-04T19:37:46.417Z,1067.5
2022-12-04T19:39:29.827Z,1066.6
2022-12-04T19:41:13.221Z,1062.6
2022-12-04T19:42:56.598Z,1057.8
2022-12-04T19:44:40.006Z,1056.4
2022-12-04T19:48:06.485Z,1051.8
2022-12-04T19:49:49.870Z,1048.1
2022-12-04T19:51:33.261Z,1043.8
2022-12-04T19:53:16.659Z,1041.4
2022-12-04T19:55:00.078Z,1036.6
2022-12-04T19:56:43.469Z,1035.8
2022-12-04T19:58:26.860Z,1037.6
2022-12-04T20:00:10.267Z,1036.6
2022-12-04T20:01:53.645Z,1035.1
2022-12-04T20:03:37.346Z,1038.1
2022-12-04T20:05:20.762Z,1038.1
2022-12-04T20:07:04.222Z,1038.8
2022-12-04T20:08:47.535Z,1040
2022-12-04T20:10:30.938Z,1040.8
2022-12-04T20:12:14.347Z,1039.8
2022-12-04T20:13:57.730Z,1033.8
2022-12-04T20:15:41.123Z,1028
2022-12-04T20:17:24.517Z,1021.6
2022-12-04T20:19:08.227Z,1017.6
2022-12-04T20:20:51.613Z,1015.6
2022-12-04T20:22:35.025Z,1018.7
2022-12-04T20:24:18.423Z,1019.3
2022-12-04T20:26:01.819Z,1015.6
2022-12-04T20:27:45.211Z,1014.5
2022-12-04T20:29:28.619Z,1012.2
2022-12-04T20:31:12.013Z,1012.6
2022-12-04T20:32:55.395Z,1012
2022-12-04T20:34:39.114Z,1010.2
2022-12-04T20:36:22.493Z,1008.4
2022-12-04T20:38:06.056Z,1007.5
2022-12-04T20:39:49.283Z,1008.1
2022-12-04T20:41:32.689Z,1006.8
2022-12-04T20:43:16.076Z,1006
2022-12-04T20:44:59.475Z,1008.1
2022-12-04T20:46:42.866Z,1011.6
2022-12-04T20:48:26.265Z,1011.4
2022-12-04T20:51:52.734Z,1012.7
2022-12-04T20:53:36.157Z,1013.7
2022-12-04T20:55:19.520Z,1012.8
2022-12-04T20:57:02.935Z,1009.7
2022-12-04T20:58:46.333Z,1008.8
2022-12-04T21:00:29.719Z,1008.5
2022-12-04T21:02:13.260Z,1007.7
2022-12-04T21:03:56.506Z,1006.8
2022-12-04T21:09:05.763Z,1004.3
2022-12-04T21:10:49.160Z,1001.1
2022-12-04T21:12:32.542Z,999.1
2022-12-04T21:14:15.960Z,997.2
2022-12-04T21:15:59.342Z,998
2022-12-04T21:17:42.731Z,996.7
2022-12-04T21:19:26.122Z,994
2022-12-04T21:21:09.528Z,994
2022-12-04T21:22:52.914Z,997.2
2022-12-04T21:28:02.179Z,1000.1
2022-12-04T21:29:45.559Z,1000.8
2022-12-04T21:31:28.968Z,1002.7
2022-12-04T21:33:12.358Z,1004
2022-12-04T21:34:55.758Z,1003.1
2022-12-04T21:36:39.152Z,1000.6
2022-12-04T21:38:22.541Z,996
2022-12-04T21:40:05.943Z,994.6
2022-12-04T21:41:49.357Z,992.6
2022-12-04T21:43:33.047Z,993.4
2022-12-04T21:45:16.447Z,996.7
2022-12-04T21:46:59.828Z,1000.5
2022-12-04T21:48:43.237Z,1000.6
2022-12-04T21:50:26.624Z,994.8
2022-12-04T21:52:10.033Z,993.7
2022-12-04T21:53:53.423Z,993.8
2022-12-04T21:55:36.821Z,990.7
2022-12-04T22:00:46.057Z,985.9
2022-12-04T22:02:29.480Z,986.8
2022-12-04T22:04:12.849Z,988.7
2022-12-04T22:05:56.251Z,992.3
2022-12-04T22:07:39.642Z,991.4
2022-12-04T22:09:23.075Z,989.4
2022-12-04T22:11:06.441Z,985.8
2022-12-04T22:12:49.883Z,986.3
2022-12-04T22:17:59.078Z,1008.4
2022-12-04T22:19:42.455Z,1016
2022-12-04T22:21:25.871Z,1018.7
2022-12-04T22:23:09.322Z,1021.1
2022-12-04T22:24:52.655Z,1022.5
2022-12-04T22:26:36.064Z,1023.7
2022-12-04T22:28:19.445Z,1023.1
2022-12-04T22:30:02.848Z,1026
2022-12-04T22:35:12.093Z,1027.6
2022-12-04T22:36:55.480Z,1022.5
2022-12-04T22:38:38.877Z,1019
2022-12-04T22:40:22.295Z,1014.8
2022-12-04T22:42:05.669Z,1012.5
2022-12-04T22:43:49.071Z,1011.7
2022-12-04T22:45:32.459Z,1008.5
2022-12-04T22:47:15.869Z,1005.3
2022-12-04T22:52:25.107Z,1008.6
2022-12-04T22:54:08.497Z,1009.4
2022-12-04T22:55:51.904Z,1007.8
2022-12-04T22:57:35.343Z,1009.1
2022-12-04T22:59:18.682Z,1006.6
2022-12-04T23:01:02.084Z,1004.8
2022-12-04T23:02:45.484Z,1003.1
2022-12-04T23:04:28.884Z,1007.7
2022-12-04T23:07:55.403Z,1013.4
2022-12-04T23:09:38.751Z,1014.3
2022-12-04T23:11:22.171Z,1015
2022-12-04T23:13:05.543Z,1018.5
2022-12-04T23:14:48.943Z,1020.4
2022-12-04T23:16:32.336Z,1022
2022-12-04T23:18:15.751Z,1019.2
2022-12-04T23:19:59.130Z,1019.1
2022-12-04T23:23:25.608Z,1011.1
2022-12-04T23:25:09.005Z,1006.5
2022-12-04T23:26:52.403Z,1010.8
2022-12-04T23:28:35.794Z,1056.4
2022-12-04T23:30:19.201Z,1098.2
2022-12-04T23:32:02.568Z,1117.1
2022-12-04T23:33:45.992Z,1122.8
2022-12-04T23:35:29.364Z,1122.8
2022-12-04T23:37:12.803Z,1123.5
2022-12-04T23:38:56.479Z,1127.2
2022-12-04T23:40:39.883Z,1127.4
2022-12-04T23:42:23.260Z,1125.2
2022-12-04T23:44:06.655Z,1131.5
2022-12-04T23:45:50.054Z,1131.2
2022-12-04T23:47:33.464Z,1133.8
2022-12-04T23:49:16.855Z,1133.4
2022-12-04T23:51:00.257Z,1130.3
2022-12-04T23:56:09.490Z,1126.4
2022-12-04T23:57:52.890Z,1128.1
2022-12-04T23:59:36.295Z,1122.4
